Time;durP1;ratioP1;P1;durP2;ratioP2;P2;SDS_P1;SDS_P2;PMS_P1;PMS_P2;Temp;Humidity;BMP_temperature;BMP_pressure;BME280_temperature;BME280_humidity;BME280_pressure;Samples;Min_cycle;Max_cycle;Signal;HPM_P1;HPM_P2
2022/02/23 00:00:22;;;;;;;;;;;;;;;16.95;51.68;102202.81;5011130;28;19932;-76
2022/02/23 00:02:48;;;;;;;;;;;;;;;16.95;51.59;102207.16;4999837;28;20402;-76
2022/02/23 00:05:13;;;;;;;;;;;;;;;16.94;51.46;102208.88;5000656;28;19940;-77
2022/02/23 00:07:38;;;;;;;;;;;;;;;16.95;51.58;102209.75;4997275;28;19926;-76
2022/02/23 00:10:04;;;;;;;;;;;;;;;16.94;51.52;102208.88;4996628;28;19925;-76
2022/02/23 00:12:30;;;;;;;;;;;;;;;16.93;51.53;102227.91;4995191;28;19918;-78
2022/02/23 00:14:57;;;;;;;;;;;;;;;16.94;51.34;102229.69;4977864;28;19918;-76
2022/02/23 00:17:25;;;;;;;;;;;;;;;16.94;51.44;102234.88;4997012;28;19918;-76
2022/02/23 00:19:50;;;;;;;;;;;;;;;16.93;51.47;102227.91;4997110;28;20383;-75
2022/02/23 00:22:15;;;;;;;;;;;;;;;16.94;51.61;102228.78;4995080;28;20005;-76
2022/02/23 00:24:40;;;;;;;;;;;;;;;16.93;51.44;102235.72;4961246;28;20376;-76
2022/02/23 00:27:05;;;;;;;;;;;;;;;16.93;51.34;102238.31;4994361;28;20340;-77
2022/02/23 00:29:31;;;;;;;;;;;;;;;16.93;51.38;102240.06;4977632;28;20360;-78
2022/02/23 00:31:56;;;;;;;;;;;;;;;16.92;51.32;102244.38;4962365;28;20017;-78
2022/02/23 00:34:21;;;;;;;;;;;;;;;16.92;51.29;102244.38;5014891;28;20016;-77
2022/02/23 00:36:46;;;;;;;;;;;;;;;16.92;51.55;102247.00;4996487;28;19971;-78
2022/02/23 00:39:12;;;;;;;;;;;;;;;16.92;51.18;102249.59;5014618;28;19918;-76
2022/02/23 00:41:37;;;;;;;;;;;;;;;16.92;51.30;102249.59;4980628;28;19926;-77
2022/02/23 00:44:02;;;;;;;;;;;;;;;16.90;51.42;102248.69;4996903;28;19917;-77
2022/02/23 00:46:27;;;;;;;;;;;;;;;16.91;51.38;102246.94;5010900;28;19968;-77
2022/02/23 00:48:54;;;;;;;;;;;;;;;16.90;51.23;102240.88;4977505;28;20017;-76
2022/02/23 00:51:20;;;;;;;;;;;;;;;16.91;51.40;102241.75;4985988;28;20311;-77
2022/02/23 00:53:45;;;;;;;;;;;;;;;16.90;51.28;102243.50;4997206;28;19913;-78
2022/02/23 00:56:10;;;;;;;;;;;;;;;16.90;51.26;102248.69;5013964;28;19924;-77
2022/02/23 00:58:35;;;;;;;;;;;;;;;16.90;51.25;102248.69;4996861;28;19917;-76
2022/02/23 01:01:01;;;;;;;;;;;;;;;16.91;51.30;102259.94;4997167;28;19924;-77
2022/02/23 01:03:26;;;;;;;;;;;;;;;16.90;51.22;102253.88;4977526;28;20375;-77
2022/02/23 01:05:52;;;;;;;;;;;;;;;16.90;51.38;102251.28;4995374;28;20020;-77
2022/02/23 01:08:17;;;;;;;;;;;;;;;16.89;51.06;102259.91;5014007;28;19921;-76
2022/02/23 01:10:42;;;;;;;;;;;;;;;16.87;51.02;102259.03;4996478;28;20004;-78
2022/02/23 01:13:07;;;;;;;;;;;;;;;16.87;51.12;102266.81;4992452;28;20290;-75
2022/02/23 01:15:33;;;;;;;;;;;;;;;16.88;51.31;102266.00;4980096;28;19973;-75
2022/02/23 01:17:58;;;;;;;;;;;;;;;16.88;51.03;102263.38;4995859;28;19917;-78
2022/02/23 01:20:23;;;;;;;;;;;;;;;16.87;51.23;102266.81;4996688;28;19917;-78
2022/02/23 01:22:51;;;;;;;;;;;;;;;16.87;51.16;102269.41;5001251;28;19917;-78
2022/02/23 01:25:17;;;;;;;;;;;;;;;16.86;51.15;102271.16;4994618;28;19918;-78
2022/02/23 01:27:42;;;;;;;;;;;;;;;16.86;51.19;102278.09;4991454;28;20327;-78
2022/02/23 01:30:08;;;;;;;;;;;;;;;16.86;51.26;102286.75;5004237;28;19924;-76
2022/02/23 01:32:33;;;;;;;;;;;;;;;16.86;51.12;102294.56;4999630;28;19921;-78
2022/02/23 01:34:58;;;;;;;;;;;;;;;16.86;51.01;102288.47;5006392;28;19924;-77
2022/02/23 01:37:24;;;;;;;;;;;;;;;16.85;51.03;102295.41;4996197;28;20448;-78
2022/02/23 01:39:49;;;;;;;;;;;;;;;16.85;51.11;102297.13;4964846;28;20415;-77
2022/02/23 01:42:15;;;;;;;;;;;;;;;16.85;51.15;102303.22;4980586;28;19925;-78
2022/02/23 01:44:40;;;;;;;;;;;;;;;16.85;51.07;102300.63;4982881;28;20352;-78
2022/02/23 01:47:06;;;;;;;;;;;;;;;16.84;51.22;102301.44;5000180;28;19914;-79
2022/02/23 01:49:31;;;;;;;;;;;;;;;16.85;51.20;102310.13;4998381;28;20303;-76
2022/02/23 01:51:56;;;;;;;;;;;;;;;16.85;50.96;102321.41;4999406;28;19957;-76
2022/02/23 01:54:22;;;;;;;;;;;;;;;16.85;51.00;102320.53;4999716;28;19921;-78
2022/02/23 01:56:47;;;;;;;;;;;;;;;16.83;51.14;102324.81;5017392;28;20000;-77
2022/02/23 01:59:12;;;;;;;;;;;;;;;16.83;50.92;102324.81;4999989;28;19952;-78
2022/02/23 02:01:37;;;;;;;;;;;;;;;16.82;51.11;102329.16;5016742;28;20394;-78
2022/02/23 02:04:03;;;;;;;;;;;;;;;16.82;50.87;102329.16;5012818;28;20456;-76
2022/02/23 02:06:28;;;;;;;;;;;;;;;16.83;51.05;102332.63;5013289;28;20004;-77
2022/02/23 02:08:53;;;;;;;;;;;;;;;16.83;51.03;102337.81;5012326;28;20414;-76
2022/02/23 02:11:19;;;;;;;;;;;;;;;16.83;51.02;102330.00;4964099;28;19926;-77
2022/02/23 02:13:44;;;;;;;;;;;;;;;16.81;50.84;102340.41;4980312;28;19925;-76
2022/02/23 02:16:09;;;;;;;;;;;;;;;16.82;51.12;102341.28;4997448;28;19929;-76
2022/02/23 02:18:35;;;;;;;;;;;;;;;16.82;51.07;102341.28;4979904;28;19918;-76
2022/02/23 02:21:00;;;;;;;;;;;;;;;16.82;50.89;102346.47;5007559;28;20362;-76
2022/02/23 02:23:25;;;;;;;;;;;;;;;16.81;50.89;102340.41;4983173;28;20271;-76
2022/02/23 02:25:50;;;;;;;;;;;;;;;16.81;51.00;102344.72;4972344;28;19917;-76
2022/02/23 02:28:16;;;;;;;;;;;;;;;16.80;50.81;102349.03;4999789;28;20367;-75
2022/02/23 02:30:41;;;;;;;;;;;;;;;16.80;50.99;102342.97;4995623;28;19921;-75
2022/02/23 02:33:06;;;;;;;;;;;;;;;16.80;50.97;102356.84;5016381;28;19917;-75
2022/02/23 02:35:36;;;;;;;;;;;;;;;16.80;50.98;102353.38;5016291;28;19917;-78
2022/02/23 02:38:02;;;;;;;;;;;;;;;16.79;50.92;102349.88;4999551;28;19913;-77
2022/02/23 02:40:27;;;;;;;;;;;;;;;16.79;50.78;102355.06;5015447;28;19921;-75
2022/02/23 02:42:53;;;;;;;;;;;;;;;16.80;50.92;102356.84;4980864;28;20287;-77
2022/02/23 02:45:19;;;;;;;;;;;;;;;16.79;51.01;102362.00;4980758;28;19921;-78
2022/02/23 02:47:44;;;;;;;;;;;;;;;16.80;50.97;102363.78;4963092;28;19914;-78
2022/02/23 02:50:09;;;;;;;;;;;;;;;16.78;50.94;102357.63;4978704;28;19961;-78
2022/02/23 02:52:35;;;;;;;;;;;;;;;16.78;50.76;102368.91;4979223;28;19918;-78
2022/02/23 02:55:00;;;;;;;;;;;;;;;16.79;51.07;102364.59;4979195;28;19917;-76
2022/02/23 02:57:25;;;;;;;;;;;;;;;16.79;50.90;102367.19;4996910;28;19921;-77
2022/02/23 02:59:50;;;;;;;;;;;;;;;16.79;50.99;102369.81;4982537;28;19933;-78
2022/02/23 03:02:16;;;;;;;;;;;;;;;16.78;50.99;102374.09;4997977;28;19925;-78
2022/02/23 03:04:41;;;;;;;;;;;;;;;16.78;50.87;102378.44;4989978;28;20415;-78
2022/02/23 03:07:06;;;;;;;;;;;;;;;16.77;50.87;102374.09;4962808;28;19926;-76
2022/02/23 03:09:31;;;;;;;;;;;;;;;16.77;50.91;102371.50;4979042;28;19922;-77
2022/02/23 03:11:57;;;;;;;;;;;;;;;16.77;51.00;102376.69;5007485;28;19922;-78
2022/02/23 03:14:22;;;;;;;;;;;;;;;16.77;50.76;102381.91;5000537;28;20269;-78
2022/02/23 03:16:48;;;;;;;;;;;;;;;16.77;50.69;102381.91;4978818;28;20000;-76
2022/02/23 03:19:14;;;;;;;;;;;;;;;16.77;50.85;102384.50;4979033;28;19918;-76
2022/02/23 03:21:39;;;;;;;;;;;;;;;16.76;50.84;102395.72;5008912;28;19972;-75
2022/02/23 03:24:05;;;;;;;;;;;;;;;16.76;50.94;102387.94;5015946;28;19932;-76
2022/02/23 03:26:30;;;;;;;;;;;;;;;16.75;50.73;102394.00;5005024;28;19922;-75
2022/02/23 03:28:55;;;;;;;;;;;;;;;16.75;50.71;102394.84;4996168;28;19918;-74
2022/02/23 03:31:20;;;;;;;;;;;;;;;16.75;51.00;102396.59;4966155;28;20291;-76
2022/02/23 03:33:46;;;;;;;;;;;;;;;16.73;50.68;102396.56;4998279;28;19913;-75
2022/02/23 03:36:12;;;;;;;;;;;;;;;16.74;50.96;102405.22;5013322;28;19918;-75
2022/02/23 03:38:37;;;;;;;;;;;;;;;16.74;50.91;102400.00;4987214;28;19917;-76
2022/02/23 03:41:03;;;;;;;;;;;;;;;16.73;50.71;102396.56;4997445;28;20359;-75
2022/02/23 03:43:28;;;;;;;;;;;;;;;16.74;50.66;102397.41;4997705;28;19918;-74
2022/02/23 03:45:53;;;;;;;;;;;;;;;16.72;50.80;102397.38;4997754;28;19913;-76
2022/02/23 03:48:19;;;;;;;;;;;;;;;16.72;50.68;102401.72;4979269;28;19972;-75
2022/02/23 03:50:44;;;;;;;;;;;;;;;16.72;50.81;102396.50;4995595;28;19960;-75
2022/02/23 03:53:09;;;;;;;;;;;;;;;16.72;50.89;102389.56;4995651;28;19983;-75
2022/02/23 03:55:35;;;;;;;;;;;;;;;16.71;50.76;102398.25;4962009;28;19922;-76
2022/02/23 03:58:00;;;;;;;;;;;;;;;16.73;50.61;102400.88;4992601;28;19961;-75
2022/02/23 04:00:25;;;;;;;;;;;;;;;16.72;50.67;102401.72;4997380;28;19913;-76
2022/02/23 04:02:51;;;;;;;;;;;;;;;16.72;50.57;102404.31;4984588;28;19926;-76
2022/02/23 04:05:16;;;;;;;;;;;;;;;16.71;50.88;102405.16;4995270;28;19940;-76
2022/02/23 04:07:41;;;;;;;;;;;;;;;16.71;50.69;102407.78;4979728;28;19926;-76
2022/02/23 04:10:07;;;;;;;;;;;;;;;16.71;51.10;102405.16;4977924;28;19944;-76
2022/02/23 04:12:32;;;;;;;;;;;;;;;16.70;50.76;102412.09;4986734;28;19953;-76
2022/02/23 04:14:57;;;;;;;;;;;;;;;16.70;50.67;102419.00;4997350;28;19920;-75
2022/02/23 04:17:23;;;;;;;;;;;;;;;16.69;50.77;102410.31;5007591;28;20428;-74
2022/02/23 04:19:48;;;;;;;;;;;;;;;16.69;50.72;102415.53;5012694;28;19921;-75
2022/02/23 04:22:13;;;;;;;;;;;;;;;16.70;50.82;102416.41;4982995;28;19929;-75
2022/02/23 04:24:38;;;;;;;;;;;;;;;16.67;50.67;102417.22;4996869;28;19917;-74
2022/02/23 04:27:04;;;;;;;;;;;;;;;16.69;50.75;102417.25;4980647;28;19925;-74
2022/02/23 04:29:30;;;;;;;;;;;;;;;16.68;50.85;102424.19;4997102;28;19917;-75
2022/02/23 04:31:56;;;;;;;;;;;;;;;16.67;50.71;102423.28;4996326;28;19921;-75
2022/02/23 04:34:21;;;;;;;;;;;;;;;16.67;50.73;102422.41;4996784;28;19914;-75
2022/02/23 04:36:46;;;;;;;;;;;;;;;16.69;50.67;102422.47;5014648;28;19917;-76
2022/02/23 04:39:12;;;;;;;;;;;;;;;16.67;50.55;102420.69;4997832;28;20008;-75
2022/02/23 04:41:37;;;;;;;;;;;;;;;16.67;50.79;102423.28;4993342;28;20292;-75
2022/02/23 04:44:03;;;;;;;;;;;;;;;16.66;50.87;102431.06;4994733;28;19973;-74
2022/02/23 04:46:28;;;;;;;;;;;;;;;16.64;50.72;102428.44;4994759;28;19917;-74
2022/02/23 04:48:53;;;;;;;;;;;;;;;16.67;50.82;102431.09;5009712;28;20273;-74
2022/02/23 04:51:23;;;;;;;;;;;;;;;16.65;50.81;102437.97;4996484;28;19975;-75
2022/02/23 04:53:49;;;;;;;;;;;;;;;16.65;50.65;102432.78;4996375;28;19961;-75
2022/02/23 04:56:14;;;;;;;;;;;;;;;16.66;50.63;102438.88;5014274;28;19918;-76
2022/02/23 04:58:39;;;;;;;;;;;;;;;16.65;50.73;102443.16;4996290;28;19939;-76
2022/02/23 05:01:05;;;;;;;;;;;;;;;16.65;50.54;102445.78;4996771;28;19921;-75
2022/02/23 05:03:30;;;;;;;;;;;;;;;16.64;50.80;102450.97;4985041;28;19922;-75
2022/02/23 05:05:56;;;;;;;;;;;;;;;16.63;50.57;102451.78;4994355;28;19924;-76
2022/02/23 05:08:21;;;;;;;;;;;;;;;16.64;50.72;102456.16;4968691;28;19957;-77
2022/02/23 05:10:47;;;;;;;;;;;;;;;16.64;50.79;102458.75;4989377;28;20004;-76
2022/02/23 05:13:12;;;;;;;;;;;;;;;16.63;50.63;102459.59;4982091;28;19971;-75
2022/02/23 05:15:37;;;;;;;;;;;;;;;16.63;50.66;102457.00;4964843;28;20372;-74
2022/02/23 05:18:07;;;;;;;;;;;;;;;16.63;50.58;102467.38;4986187;28;20084;-74
2022/02/23 05:20:33;;;;;;;;;;;;;;;16.63;50.81;102467.38;4999285;28;19925;-75
2022/02/23 05:22:58;;;;;;;;;;;;;;;16.62;50.51;102465.66;5006989;28;19918;-74
2022/02/23 05:25:24;;;;;;;;;;;;;;;16.62;50.68;102468.25;5017726;28;19963;-74
2022/02/23 05:27:49;;;;;;;;;;;;;;;16.62;50.52;102463.91;4968940;28;20433;-75
2022/02/23 05:30:15;;;;;;;;;;;;;;;16.61;50.61;102464.78;5002909;28;19918;-74
2022/02/23 05:32:40;;;;;;;;;;;;;;;16.62;50.46;102468.25;5012198;28;19922;-75
2022/02/23 05:35:05;;;;;;;;;;;;;;;16.62;50.53;102460.44;4998215;28;19913;-74
2022/02/23 05:37:31;;;;;;;;;;;;;;;16.62;50.65;102452.66;4980527;28;20001;-75
2022/02/23 05:39:56;;;;;;;;;;;;;;;16.62;50.72;102463.06;5006049;28;19917;-75
2022/02/23 05:42:22;;;;;;;;;;;;;;;16.62;50.72;102463.06;4978569;28;19929;-75
2022/02/23 05:44:47;;;;;;;;;;;;;;;16.61;50.72;102464.78;4964401;28;20360;-75
2022/02/23 05:47:12;;;;;;;;;;;;;;;16.61;50.51;102464.78;4998945;28;19918;-76
2022/02/23 05:49:37;;;;;;;;;;;;;;;16.61;50.69;102467.38;4980394;28;19925;-75
2022/02/23 05:52:03;;;;;;;;;;;;;;;16.62;50.49;102468.25;4994954;28;19928;-75
2022/02/23 05:54:30;;;;;;;;;;;;;;;16.62;50.63;102476.91;4980524;28;19917;-75
2022/02/23 05:56:56;;;;;;;;;;;;;;;16.60;50.41;102473.41;4967960;28;19957;-74
2022/02/23 05:59:25;;;;;;;;;;;;;;;16.60;50.70;102475.13;4986567;28;20004;-78
2022/02/23 06:01:50;;;;;;;;;;;;;;;16.60;50.45;102478.59;4980181;28;19950;-77
2022/02/23 06:04:15;;;;;;;;;;;;;;;16.59;50.68;102479.47;4976382;28;19921;-76
2022/02/23 06:06:41;;;;;;;;;;;;;;;16.61;50.96;102475.19;4977417;28;19930;-77
2022/02/23 06:09:06;;;;;;;;;;;;;;;16.63;51.03;102478.66;4995786;28;19922;-77
2022/02/23 06:11:31;;;;;;;;;;;;;;;16.66;51.32;102485.66;4999051;28;19928;-77
2022/02/23 06:13:56;;;;;;;;;;;;;;;16.73;51.29;102487.53;4999323;28;20442;-75
2022/02/23 06:16:23;;;;;;;;;;;;;;;16.77;51.43;102484.16;4999621;28;20016;-77
2022/02/23 06:18:48;;;;;;;;;;;;;;;16.82;51.06;102486.88;5017012;28;19917;-80
2022/02/23 06:21:13;;;;;;;;;;;;;;;16.83;51.21;102486.00;4999256;28;20360;-78
2022/02/23 06:23:39;;;;;;;;;;;;;;;16.87;51.35;102487.84;5015657;28;20423;-77
2022/02/23 06:26:05;;;;;;;;;;;;;;;16.94;51.36;102487.13;4999511;28;19920;-76
2022/02/23 06:28:30;;;;;;;;;;;;;;;16.96;51.49;102487.13;4983454;28;20004;-77
2022/02/23 06:30:56;;;;;;;;;;;;;;;16.98;51.54;102483.72;4983106;28;19945;-78
2022/02/23 06:33:23;;;;;;;;;;;;;;;16.97;51.40;102487.16;4983094;28;20318;-76
2022/02/23 06:35:52;;;;;;;;;;;;;;;16.95;51.46;102486.25;4999628;28;19917;-76
2022/02/23 06:38:17;;;;;;;;;;;;;;;16.98;51.40;102485.44;4999276;28;19917;-76
2022/02/23 06:40:43;;;;;;;;;;;;;;;16.99;51.24;102492.41;4999249;28;19920;-78
2022/02/23 06:43:08;;;;;;;;;;;;;;;16.98;51.24;102491.50;4999311;28;19929;-78
2022/02/23 06:45:34;;;;;;;;;;;;;;;17.00;51.45;102499.34;4982851;28;19984;-77
2022/02/23 06:47:59;;;;;;;;;;;;;;;17.00;51.41;102505.41;4998957;28;20393;-77
2022/02/23 06:50:25;;;;;;;;;;;;;;;17.00;51.28;102500.22;4999054;28;19957;-77
2022/02/23 06:52:52;;;;;;;;;;;;;;;17.01;51.32;102502.00;5016657;28;19917;-76
2022/02/23 06:55:17;;;;;;;;;;;;;;;17.03;51.30;102495.09;4999126;28;19917;-76
2022/02/23 06:57:43;;;;;;;;;;;;;;;17.05;51.19;102487.34;4999394;28;19968;-76
2022/02/23 07:00:09;;;;;;;;;;;;;;;17.05;51.24;102489.94;4999249;28;19925;-77
2022/02/23 07:02:35;;;;;;;;;;;;;;;17.09;50.85;102488.25;4998818;28;19918;-78
2022/02/23 07:05:00;;;;;;;;;;;;;;;17.10;50.93;102487.41;4982568;28;19971;-79
2022/02/23 07:07:26;;;;;;;;;;;;;;;17.10;51.02;102488.28;5015981;28;20396;-77
2022/02/23 07:09:51;;;;;;;;;;;;;;;17.12;51.13;102486.59;4998535;28;19972;-75
2022/02/23 07:12:17;;;;;;;;;;;;;;;17.13;50.84;102487.47;5016174;28;19913;-77
2022/02/23 07:14:42;;;;;;;;;;;;;;;17.13;50.81;102490.94;4998604;28;19925;-77
2022/02/23 07:17:07;;;;;;;;;;;;;;;17.15;51.09;102480.56;4982603;28;19924;-77
2022/02/23 07:19:36;;;;;;;;;;;;;;;17.16;51.17;102477.09;5015966;28;19918;-76
2022/02/23 07:22:01;;;;;;;;;;;;;;;17.17;50.83;102481.47;4982490;28;19929;-75
2022/02/23 07:24:26;;;;;;;;;;;;;;;17.19;51.00;102490.19;5015719;28;19917;-76
2022/02/23 07:26:51;;;;;;;;;;;;;;;17.20;50.77;102489.31;4998515;28;20371;-75
2022/02/23 07:29:17;;;;;;;;;;;;;;;17.21;51.01;102493.69;4998215;28;19913;-76
2022/02/23 07:31:44;;;;;;;;;;;;;;;17.24;51.04;102493.72;5016016;28;19913;-76
2022/02/23 07:34:10;;;;;;;;;;;;;;;17.24;50.74;102484.19;4998367;28;19935;-75
2022/02/23 07:36:35;;;;;;;;;;;;;;;17.24;50.74;102491.13;4998175;28;20340;-76
2022/02/23 07:39:00;;;;;;;;;;;;;;;17.25;51.04;102485.97;4981904;28;20290;-74
2022/02/23 07:41:25;;;;;;;;;;;;;;;17.28;50.83;102492.94;4998003;28;19932;-75
2022/02/23 07:43:52;;;;;;;;;;;;;;;17.26;50.80;102487.69;5015612;28;19992;-75
2022/02/23 07:46:18;;;;;;;;;;;;;;;17.28;50.72;102479.94;4997979;28;20422;-77
2022/02/23 07:48:46;;;;;;;;;;;;;;;17.31;50.68;102481.72;4997838;28;19921;-77
2022/02/23 07:51:12;;;;;;;;;;;;;;;17.30;50.84;102483.44;5015660;28;19928;-77
2022/02/23 07:53:37;;;;;;;;;;;;;;;17.31;50.83;102482.59;4997935;28;19917;-76
2022/02/23 07:56:03;;;;;;;;;;;;;;;17.31;50.88;102490.41;4997862;28;19966;-75
2022/02/23 07:58:28;;;;;;;;;;;;;;;17.31;51.09;102489.50;4998125;28;19979;-76
2022/02/23 08:00:54;;;;;;;;;;;;;;;17.33;50.78;102493.03;4997712;28;20007;-77
2022/02/23 08:03:20;;;;;;;;;;;;;;;17.30;50.68;102491.25;4997370;28;19918;-76
2022/02/23 08:05:45;;;;;;;;;;;;;;;17.32;50.71;102484.34;4997649;28;20450;-76
2022/02/23 08:08:11;;;;;;;;;;;;;;;17.35;50.65;102488.72;5014959;28;19925;-75
2022/02/23 08:10:36;;;;;;;;;;;;;;;17.38;50.70;102491.41;4981340;28;19945;-76
2022/02/23 08:13:05;;;;;;;;;;;;;;;17.46;50.56;102490.69;4981004;28;20372;-76
2022/02/23 08:20:58;;;;;;;;;;;;;;;18.11;48.73;102493.47;5015003;28;20283;-77
2022/02/23 08:23:23;;;;;;;;;;;;;;;18.23;48.57;102485.81;4996969;28;20016;-76
2022/02/23 08:25:48;;;;;;;;;;;;;;;18.31;48.42;102486.78;4997126;28;19914;-76
2022/02/23 08:28:15;;;;;;;;;;;;;;;18.34;48.18;102480.75;5014588;28;20311;-76
2022/02/23 08:30:41;;;;;;;;;;;;;;;18.33;48.37;102481.59;4997602;28;19917;-76
2022/02/23 08:33:06;;;;;;;;;;;;;;;18.35;48.08;102485.09;4980801;28;19940;-76
2022/02/23 08:35:32;;;;;;;;;;;;;;;18.35;48.34;102485.09;4981221;28;19921;-76
2022/02/23 08:37:57;;;;;;;;;;;;;;;18.36;48.31;102476.44;4996890;28;19914;-76
2022/02/23 08:40:23;;;;;;;;;;;;;;;18.35;48.34;102485.97;4997016;28;20016;-76
2022/02/23 08:42:48;;;;;;;;;;;;;;;18.33;48.22;102476.38;5014329;28;19918;-76
2022/02/23 08:45:13;;;;;;;;;;;;;;;18.33;48.39;102479.00;4996812;28;19928;-76
2022/02/23 08:47:39;;;;;;;;;;;;;;;18.32;48.13;102479.88;4996158;28;19921;-76
2022/02/23 08:50:05;;;;;;;;;;;;;;;18.30;48.30;102479.84;4980366;28;20056;-76
2022/02/23 08:52:30;;;;;;;;;;;;;;;18.28;48.23;102482.41;4996669;28;19940;-76
2022/02/23 08:54:55;;;;;;;;;;;;;;;18.28;48.50;102478.94;4996590;28;19918;-76
2022/02/23 08:57:20;;;;;;;;;;;;;;;18.25;48.53;102479.78;4980480;28;19921;-75
2022/02/23 08:59:46;;;;;;;;;;;;;;;18.23;48.52;102481.47;4996601;28;19914;-75
2022/02/23 09:02:11;;;;;;;;;;;;;;;18.22;48.41;102484.06;5014364;28;19917;-77
2022/02/23 09:04:36;;;;;;;;;;;;;;;18.18;48.66;102479.66;4980454;28;19964;-76
2022/02/23 09:07:02;;;;;;;;;;;;;;;18.16;48.73;102489.19;4980174;28;19925;-75
2022/02/23 09:09:27;;;;;;;;;;;;;;;18.15;48.50;102484.84;4996533;28;20065;-76
2022/02/23 09:11:53;;;;;;;;;;;;;;;18.12;48.85;102496.09;5014165;28;19919;-76
2022/02/23 09:14:19;;;;;;;;;;;;;;;18.08;48.97;102502.09;5014277;28;19920;-76
2022/02/23 09:16:44;;;;;;;;;;;;;;;18.07;48.93;102500.34;4996514;28;19913;-75
2022/02/23 09:19:10;;;;;;;;;;;;;;;18.06;48.77;102503.81;5014147;28;19906;-75
2022/02/23 09:21:35;;;;;;;;;;;;;;;18.04;48.92;102505.53;4996593;28;19961;-75
2022/02/23 09:24:01;;;;;;;;;;;;;;;18.02;49.11;102507.22;5013993;28;20004;-75
2022/02/23 09:26:28;;;;;;;;;;;;;;;18.02;49.12;102509.81;5014107;28;19918;-75
2022/02/23 09:28:53;;;;;;;;;;;;;;;17.99;49.06;102499.38;4980292;28;20352;-76
2022/02/23 09:31:19;;;;;;;;;;;;;;;17.96;49.31;102502.78;4996633;28;19996;-76
2022/02/23 09:33:44;;;;;;;;;;;;;;;17.97;49.14;102508.88;4996530;28;19918;-76
2022/02/23 09:36:09;;;;;;;;;;;;;;;17.96;49.47;102510.59;4996262;28;19913;-76
2022/02/23 09:38:35;;;;;;;;;;;;;;;17.92;49.36;102508.81;4996636;28;19914;-75
2022/02/23 09:41:01;;;;;;;;;;;;;;;17.91;49.28;102507.06;4996386;28;20016;-76
2022/02/23 09:43:26;;;;;;;;;;;;;;;17.93;49.34;102509.69;5013673;28;19918;-76
2022/02/23 09:45:56;;;;;;;;;;;;;;;17.91;49.30;102507.06;4996276;28;19920;-76
2022/02/23 09:48:22;;;;;;;;;;;;;;;17.90;49.41;102497.50;4996502;28;20445;-76
2022/02/23 09:50:49;;;;;;;;;;;;;;;17.91;49.33;102500.97;4996166;28;20363;-76
2022/02/23 09:53:14;;;;;;;;;;;;;;;17.90;49.32;102507.91;4996332;28;19914;-77
2022/02/23 09:55:40;;;;;;;;;;;;;;;17.87;49.46;102506.13;4996344;28;19984;-77
2022/02/23 09:58:05;;;;;;;;;;;;;;;17.87;49.45;102505.25;4997682;28;19929;-76
2022/02/23 10:00:31;;;;;;;;;;;;;;;17.87;49.53;102492.22;4999707;28;20330;-76
2022/02/23 10:02:57;;;;;;;;;;;;;;;17.86;49.36;102504.38;5017349;28;20371;-76
2022/02/23 10:05:22;;;;;;;;;;;;;;;17.86;49.40;102508.72;4999812;28;19917;-76
2022/02/23 10:07:48;;;;;;;;;;;;;;;17.85;49.45;102499.13;4999625;28;19921;-76
2022/02/23 10:10:28;;;;;;;;;;;;;;;17.84;49.61;102495.66;5017324;28;19913;-76
2022/02/23 10:12:58;;;;;;;;;;;;;;;17.83;49.38;102493.94;5017319;28;19914;-76
2022/02/23 10:15:23;;;;;;;;;;;;;;;17.85;49.60;102507.81;5017142;28;19918;-75
2022/02/23 10:17:51;;;;;;;;;;;;;;;17.85;49.32;102502.63;4983001;28;19918;-76
2022/02/23 10:20:34;;;;;;;;;;;;;;;17.84;49.34;102490.47;4999745;28;19918;-76
2022/02/23 10:23:05;;;;;;;;;;;;;;;17.82;49.43;102496.50;5016968;28;19924;-76
2022/02/23 10:25:36;;;;;;;;;;;;;;;17.81;49.42;102499.91;4999236;28;19929;-77
2022/02/23 10:28:07;;;;;;;;;;;;;;;17.78;49.55;102497.25;5017073;28;20323;-76
2022/02/23 10:30:32;;;;;;;;;;;;;;;17.77;49.68;102490.28;4999358;28;19913;-76
2022/02/23 10:33:11;;;;;;;;;;;;;;;17.75;49.44;102498.09;5016722;28;19959;-76
2022/02/23 10:35:37;;;;;;;;;;;;;;;17.75;49.64;102502.44;4999173;28;19963;-76
2022/02/23 10:38:06;;;;;;;;;;;;;;;17.72;49.52;102484.13;5016632;28;19913;-76
2022/02/23 10:40:42;;;;;;;;;;;;;;;17.71;49.74;102485.88;4999069;28;19913;-76
2022/02/23 10:43:31;;;;;;;;;;;;;;;17.71;49.68;102491.09;4998945;28;20013;-78
2022/02/23 10:46:15;;;;;;;;;;;;;;;17.70;49.73;102497.13;4999118;28;19967;-77
2022/02/23 10:48:43;;;;;;;;;;;;;;;17.70;49.68;102491.91;4998954;28;20288;-76
2022/02/23 10:51:10;;;;;;;;;;;;;;;17.68;49.55;102483.22;4998765;28;19914;-77
2022/02/23 10:53:36;;;;;;;;;;;;;;;17.68;49.58;102475.41;4998934;28;19913;-76
2022/02/23 10:56:02;;;;;;;;;;;;;;;17.69;49.46;102485.84;5016571;28;19963;-77
2022/02/23 10:58:28;;;;;;;;;;;;;;;17.70;49.58;102489.31;4998821;28;20426;-78
2022/02/23 11:00:55;;;;;;;;;;;;;;;17.69;49.62;102482.38;4998550;28;19914;-77
2022/02/23 11:03:21;;;;;;;;;;;;;;;17.68;49.60;102472.78;5000148;28;20379;-75
2022/02/23 11:05:51;;;;;;;;;;;;;;;17.67;49.46;102474.53;4982181;28;20292;-78
2022/02/23 11:08:17;;;;;;;;;;;;;;;17.67;49.46;102476.25;5005822;28;19918;-76
2022/02/23 11:10:43;;;;;;;;;;;;;;;17.67;49.66;102478.88;5013491;28;19913;-76
2022/02/23 11:13:12;;;;;;;;;;;;;;;17.68;49.50;102491.00;4998374;28;20287;-77
2022/02/23 11:15:42;;;;;;;;;;;;;;;17.68;49.38;102486.72;4982451;28;20287;-75
2022/02/23 11:18:07;;;;;;;;;;;;;;;17.67;49.38;102482.34;4998179;28;19913;-76
2022/02/23 11:20:33;;;;;;;;;;;;;;;17.68;49.44;102491.00;4982244;28;19917;-76
2022/02/23 11:23:00;;;;;;;;;;;;;;;17.67;49.35;102487.53;4998320;28;19928;-77
2022/02/23 11:25:30;;;;;;;;;;;;;;;17.68;49.62;102485.81;4998498;28;19914;-77
2022/02/23 11:28:07;;;;;;;;;;;;;;;17.67;49.62;102490.16;4998044;28;19918;-76
2022/02/23 11:30:32;;;;;;;;;;;;;;;17.69;49.50;102482.38;5015756;28;19920;-76
2022/02/23 11:32:59;;;;;;;;;;;;;;;17.68;49.31;102480.59;4989916;28;19921;-75
2022/02/23 11:35:40;;;;;;;;;;;;;;;17.67;49.29;102471.91;4996111;28;19968;-76
2022/02/23 11:38:06;;;;;;;;;;;;;;;17.68;49.47;102470.19;4998965;28;19917;-78
2022/02/23 11:40:45;;;;;;;;;;;;;;;17.68;49.57;102465.88;5015558;28;19917;-76
2022/02/23 11:43:24;;;;;;;;;;;;;;;17.68;49.52;102460.69;5015468;28;19993;-76
2022/02/23 11:46:00;;;;;;;;;;;;;;;17.72;49.39;102464.19;4997910;28;20279;-76
2022/02/23 11:48:43;;;;;;;;;;;;;;;17.77;49.23;102456.44;4985077;28;20428;-76
2022/02/23 11:51:09;;;;;;;;;;;;;;;17.78;49.18;102453.88;4995784;28;20384;-76
2022/02/23 11:53:38;;;;;;;;;;;;;;;17.81;49.09;102453.03;4962634;28;19922;-76
2022/02/23 11:56:10;;;;;;;;;;;;;;;17.82;49.34;102442.69;4978751;28;20256;-76
2022/02/23 11:58:43;;;;;;;;;;;;;;;17.86;49.14;102435.81;4978641;28;19990;-76
2022/02/23 12:01:08;;;;;;;;;;;;;;;17.86;49.14;102436.66;4979737;28;19918;-79
2022/02/23 12:03:34;;;;;;;;;;;;;;;17.87;49.29;102424.50;4982828;28;19929;-77
2022/02/23 12:06:02;;;;;;;;;;;;;;;17.89;49.21;102423.69;4983979;28;19922;-75
2022/02/23 12:08:33;;;;;;;;;;;;;;;17.91;49.21;102423.72;4998641;28;19914;-75
2022/02/23 12:11:04;;;;;;;;;;;;;;;17.91;49.22;102409.81;4996640;28;20012;-75
2022/02/23 12:13:51;;;;;;;;;;;;;;;17.91;49.22;102400.28;4996361;28;19914;-78
2022/02/23 12:16:22;;;;;;;;;;;;;;;17.96;49.18;102405.53;4996233;28;19967;-76
2022/02/23 12:18:49;;;;;;;;;;;;;;;17.95;49.07;102396.84;4978233;28;19913;-75
2022/02/23 12:21:15;;;;;;;;;;;;;;;17.97;49.21;102386.47;4977745;28;19914;-76
2022/02/23 12:23:40;;;;;;;;;;;;;;;18.01;49.11;102385.66;4994891;28;19925;-75
2022/02/23 12:26:14;;;;;;;;;;;;;;;18.02;49.03;102377.84;4961833;28;19918;-78
2022/02/23 12:28:39;;;;;;;;;;;;;;;18.02;49.02;102372.63;4977847;28;19917;-76
2022/02/23 12:31:14;;;;;;;;;;;;;;;18.01;49.05;102375.25;4994999;28;19924;-76
2022/02/23 12:33:41;;;;;;;;;;;;;;;18.01;48.99;102370.03;4995122;28;19920;-76
2022/02/23 12:36:08;;;;;;;;;;;;;;;17.99;49.04;102367.41;4995021;28;19913;-76